Time;durP1;ratioP1;P1;durP2;ratioP2;P2;SDS_P1;SDS_P2;PMS_P1;PMS_P2;Temp;Humidity;BMP_temperature;BMP_pressure;BME280_temperature;BME280_humidity;BME280_pressure;Samples;Min_cycle;Max_cycle;Signal;HPM_P1;HPM_P2
2023/02/21 02:14:14;;;;;;;;;;;;;;;20.95;48.52;101813.16;7247660;19;154349;-58
2023/02/21 02:16:46;;;;;;;;;;;;;;;20.91;48.36;101798.84;7250203;19;153103;-59
2023/02/21 02:19:16;;;;;;;;;;;;;;;20.89;48.27;101791.84;7251207;19;154358;-58
2023/02/21 02:21:44;;;;;;;;;;;;;;;20.86;48.28;101802.53;7259184;19;156328;-58
2023/02/21 02:24:12;;;;;;;;;;;;;;;20.84;48.50;101796.38;7249324;19;155641;-58
2023/02/21 02:26:40;;;;;;;;;;;;;;;20.82;48.27;101793.00;7249992;19;153925;-58
2023/02/21 02:29:08;;;;;;;;;;;;;;;20.80;48.60;101788.81;7251321;19;153916;-58
2023/02/21 02:31:38;;;;;;;;;;;;;;;20.76;48.48;101785.72;7250959;19;153498;-58
2023/02/21 02:34:06;;;;;;;;;;;;;;;20.74;48.78;101788.00;7250555;19;154867;-58
2023/02/21 02:36:38;;;;;;;;;;;;;;;20.72;48.82;101781.81;7249218;19;153115;-58
2023/02/21 02:39:08;;;;;;;;;;;;;;;20.69;48.56;101782.41;7250360;19;153229;-58
2023/02/21 02:41:45;;;;;;;;;;;;;;;20.66;48.89;101777.38;7250483;19;156379;-58
2023/02/21 02:44:17;;;;;;;;;;;;;;;20.63;48.90;101769.53;7258139;19;154622;-58
2023/02/21 02:46:46;;;;;;;;;;;;;;;20.64;49.12;101768.41;7244022;19;154735;-58
2023/02/21 02:49:15;;;;;;;;;;;;;;;20.62;49.52;101776.28;7252551;19;155050;-58
2023/02/21 02:51:42;;;;;;;;;;;;;;;20.57;49.41;101767.88;7250498;19;153850;-58
2023/02/21 02:54:09;;;;;;;;;;;;;;;20.56;49.71;101766.19;7249780;19;154387;-59
2023/02/21 02:56:37;;;;;;;;;;;;;;;20.55;49.88;101774.91;7252052;19;153054;-58
2023/02/21 02:59:06;;;;;;;;;;;;;;;20.49;49.75;101771.28;7249875;19;152559;-58
2023/02/21 03:01:35;;;;;;;;;;;;;;;20.48;49.65;101769.63;7255709;19;154879;-58
2023/02/21 03:04:05;;;;;;;;;;;;;;;20.46;50.10;101766.25;7259252;19;152167;-58
2023/02/21 03:06:33;;;;;;;;;;;;;;;20.43;50.18;101766.84;7264289;19;153596;-58
2023/02/21 03:09:05;;;;;;;;;;;;;;;20.41;49.84;101769.91;7255877;19;153743;-58
2023/02/21 03:11:33;;;;;;;;;;;;;;;20.39;50.23;101768.53;7258619;19;154423;-58
2023/02/21 03:14:03;;;;;;;;;;;;;;;20.38;49.78;101766.84;7252714;19;154396;-58
2023/02/21 03:16:32;;;;;;;;;;;;;;;20.35;50.09;101759.03;7255894;19;152258;-58
2023/02/21 03:19:05;;;;;;;;;;;;;;;20.31;49.97;101764.34;7257158;19;153779;-58
2023/02/21 03:21:39;;;;;;;;;;;;;;;20.30;50.43;101759.88;7254056;19;153400;-58
2023/02/21 03:24:07;;;;;;;;;;;;;;;20.29;50.58;101760.13;7254471;19;153543;-58
2023/02/21 03:26:35;;;;;;;;;;;;;;;20.25;50.38;101759.88;7255663;19;155028;-58
2023/02/21 03:29:03;;;;;;;;;;;;;;;20.25;50.32;101754.25;7262916;19;153966;-59
2023/02/21 03:31:35;;;;;;;;;;;;;;;20.24;50.27;101752.56;7256637;19;154243;-58
2023/02/21 03:34:02;;;;;;;;;;;;;;;20.20;50.44;101750.63;7257591;19;153685;-58
2023/02/21 03:36:30;;;;;;;;;;;;;;;20.19;50.21;101749.78;7255384;19;153547;-58
2023/02/21 03:38:57;;;;;;;;;;;;;;;20.18;50.74;101744.44;7255812;19;154383;-58
2023/02/21 03:41:24;;;;;;;;;;;;;;;20.15;50.56;101748.69;7260529;19;156623;-58
2023/02/21 03:43:51;;;;;;;;;;;;;;;20.14;50.47;101746.16;7255101;19;152732;-58
2023/02/21 03:46:18;;;;;;;;;;;;;;;20.15;50.91;101747.84;7256177;19;153399;-57
2023/02/21 03:48:45;;;;;;;;;;;;;;;20.13;50.97;101738.84;7263616;19;155324;-59
2023/02/21 03:51:13;;;;;;;;;;;;;;;20.12;51.09;101745.59;7257429;19;155924;-58
2023/02/21 03:53:41;;;;;;;;;;;;;;;20.09;51.04;101738.59;7252411;19;153633;-59
2023/02/21 03:56:08;;;;;;;;;;;;;;;20.06;51.07;101739.16;7251616;19;152513;-58
2023/02/21 03:58:35;;;;;;;;;;;;;;;20.05;51.07;101742.25;7256115;19;153303;-58
2023/02/21 04:01:04;;;;;;;;;;;;;;;20.05;51.21;101743.09;7253151;19;153850;-58
2023/02/21 04:03:31;;;;;;;;;;;;;;;20.03;51.07;101739.75;7256334;19;152010;-59
2023/02/21 04:05:58;;;;;;;;;;;;;;;20.01;51.11;101743.94;7254357;19;154534;-58
2023/02/21 04:08:25;;;;;;;;;;;;;;;19.99;51.38;101745.06;7254787;19;155097;-58
2023/02/21 04:10:52;;;;;;;;;;;;;;;19.95;51.01;101738.34;7260518;19;152373;-58
2023/02/21 04:13:19;;;;;;;;;;;;;;;19.94;51.36;101733.88;7252508;19;154547;-59
2023/02/21 04:15:46;;;;;;;;;;;;;;;19.93;50.96;101735.00;7251458;19;153570;-58
2023/02/21 04:18:14;;;;;;;;;;;;;;;19.90;51.26;101726.31;7257009;19;154908;-58
2023/02/21 04:20:41;;;;;;;;;;;;;;;19.90;51.43;101727.16;7255523;19;153814;-59
2023/02/21 04:23:08;;;;;;;;;;;;;;;19.90;51.02;101729.94;7254901;19;154088;-58
2023/02/21 04:25:35;;;;;;;;;;;;;;;19.89;51.47;101728.28;7255257;19;153500;-58
2023/02/21 04:28:02;;;;;;;;;;;;;;;19.86;51.56;101723.25;7253832;19;153682;-58
2023/02/21 04:30:29;;;;;;;;;;;;;;;19.85;51.62;101727.16;7251747;19;154098;-58
2023/02/21 04:32:56;;;;;;;;;;;;;;;19.83;51.50;101723.81;7260632;19;153712;-58
2023/02/21 04:35:23;;;;;;;;;;;;;;;19.84;51.58;101731.13;7252614;19;154936;-58
2023/02/21 04:37:50;;;;;;;;;;;;;;;19.80;51.39;101724.41;7247607;19;153946;-58
2023/02/21 04:40:17;;;;;;;;;;;;;;;19.79;51.35;101722.72;7254006;19;153941;-61
2023/02/21 04:42:44;;;;;;;;;;;;;;;19.77;51.36;101726.91;7253703;19;154701;-58
2023/02/21 04:45:12;;;;;;;;;;;;;;;19.75;51.32;101727.22;7254758;19;153850;-58
2023/02/21 04:47:39;;;;;;;;;;;;;;;19.72;51.69;101722.16;7257280;19;154276;-58
2023/02/21 04:50:06;;;;;;;;;;;;;;;19.73;51.47;101728.59;7257433;19;153552;-58
2023/02/21 04:52:33;;;;;;;;;;;;;;;19.72;51.74;101724.09;7253716;19;154630;-58
2023/02/21 04:55:00;;;;;;;;;;;;;;;19.70;51.83;101724.41;7260694;19;154812;-58
2023/02/21 04:57:27;;;;;;;;;;;;;;;19.69;51.68;101719.94;7255272;19;157198;-59
2023/02/21 04:59:56;;;;;;;;;;;;;;;19.66;51.61;101714.06;7254084;19;154116;-58
2023/02/21 05:02:23;;;;;;;;;;;;;;;19.67;51.67;101719.34;7254464;19;152036;-58
2023/02/21 05:04:50;;;;;;;;;;;;;;;19.66;51.87;101714.06;7258952;19;153352;-58
2023/02/21 05:07:17;;;;;;;;;;;;;;;19.64;51.88;101713.47;7249574;19;153108;-58
2023/02/21 05:09:45;;;;;;;;;;;;;;;19.60;51.67;101710.41;7252054;19;152816;-58
2023/02/21 05:12:12;;;;;;;;;;;;;;;19.60;51.99;101709.56;7252229;19;154516;-58
2023/02/21 05:14:39;;;;;;;;;;;;;;;19.59;52.04;101710.69;7249797;19;152674;-58
2023/02/21 05:17:06;;;;;;;;;;;;;;;19.57;51.67;101712.94;7258618;19;154319;-58
2023/02/21 05:19:33;;;;;;;;;;;;;;;19.54;52.02;101712.38;7251105;19;153540;-58
2023/02/21 05:22:01;;;;;;;;;;;;;;;19.53;51.95;101704.28;7251638;19;152878;-58
2023/02/21 05:24:29;;;;;;;;;;;;;;;19.53;52.10;101707.09;7251581;19;154133;-58
2023/02/21 05:26:56;;;;;;;;;;;;;;;19.51;51.88;101706.50;7251699;19;154229;-58
2023/02/21 05:29:24;;;;;;;;;;;;;;;19.50;51.92;101707.63;7250918;19;154138;-58
2023/02/21 05:31:51;;;;;;;;;;;;;;;19.48;52.11;101701.47;7250853;19;153582;-59
2023/02/21 05:34:18;;;;;;;;;;;;;;;19.50;52.37;101702.03;7254121;19;154368;-58
2023/02/21 05:36:45;;;;;;;;;;;;;;;19.53;51.91;101704.28;7253191;19;153620;-59
2023/02/21 05:39:12;;;;;;;;;;;;;;;19.61;51.55;101702.84;7258555;19;154334;-58
2023/02/21 05:41:45;;;;;;;;;;;;;;;19.66;51.48;101706.50;7253606;19;153792;-58
2023/02/21 05:44:12;;;;;;;;;;;;;;;19.70;51.58;101707.59;7252331;19;152688;-58
2023/02/21 05:46:39;;;;;;;;;;;;;;;19.76;51.86;101705.63;7251312;19;153825;-58
2023/02/21 05:49:06;;;;;;;;;;;;;;;19.81;51.91;101699.97;7250846;19;154621;-58
2023/02/21 05:51:35;;;;;;;;;;;;;;;19.88;52.16;101700.53;7251020;19;151930;-58
2023/02/21 05:54:02;;;;;;;;;;;;;;;19.97;52.18;101691.25;7248315;19;153505;-58
2023/02/21 05:56:29;;;;;;;;;;;;;;;20.05;51.65;101697.38;7249182;19;151937;-58
2023/02/21 05:58:56;;;;;;;;;;;;;;;20.12;51.49;101695.09;7256881;19;154097;-58
2023/02/21 06:01:24;;;;;;;;;;;;;;;20.18;51.67;101699.56;7252257;19;153231;-58
2023/02/21 06:03:51;;;;;;;;;;;;;;;20.22;51.70;101686.63;7251827;19;154885;-58
2023/02/21 06:06:18;;;;;;;;;;;;;;;20.29;52.03;101695.56;7251858;19;155785;-57
2023/02/21 06:08:46;;;;;;;;;;;;;;;20.33;52.09;101693.91;7250835;19;153740;-58
2023/02/21 06:11:13;;;;;;;;;;;;;;;20.38;52.18;101696.69;7252308;19;154012;-58
2023/02/21 06:13:41;;;;;;;;;;;;;;;20.43;52.15;101693.84;7249175;19;154417;-58
2023/02/21 06:16:08;;;;;;;;;;;;;;;20.48;51.69;101698.59;7251978;19;154839;-57
2023/02/21 06:18:35;;;;;;;;;;;;;;;20.53;51.83;101701.38;7250929;19;154469;-58
2023/02/21 06:21:02;;;;;;;;;;;;;;;20.57;51.71;101694.06;7257911;19;154111;-59
2023/02/21 06:23:29;;;;;;;;;;;;;;;20.62;51.10;101694.88;7250395;19;152478;-59
2023/02/21 06:25:56;;;;;;;;;;;;;;;20.66;51.84;101695.97;7250013;19;153550;-58
2023/02/21 06:28:26;;;;;;;;;;;;;;;20.72;51.08;101714.44;7256764;19;153088;-58
2023/02/21 06:30:54;;;;;;;;;;;;;;;20.77;51.38;101710.75;7250418;19;153129;-58
2023/02/21 06:33:21;;;;;;;;;;;;;;;20.81;51.23;101704.25;7252000;19;156282;-58
2023/02/21 06:35:48;;;;;;;;;;;;;;;20.86;50.78;101697.75;7258618;19;154563;-58
2023/02/21 06:38:15;;;;;;;;;;;;;;;20.91;50.88;101708.13;7254772;19;153551;-58
2023/02/21 06:40:43;;;;;;;;;;;;;;;20.96;51.25;101708.09;7259318;19;154965;-58
2023/02/21 06:43:10;;;;;;;;;;;;;;;21.00;50.53;101712.81;7266365;19;153343;-58
2023/02/21 06:45:37;;;;;;;;;;;;;;;21.05;50.83;101706.31;7257286;19;153315;-58
2023/02/21 06:48:04;;;;;;;;;;;;;;;21.09;50.33;101713.03;7260490;19;153300;-58
2023/02/21 06:50:31;;;;;;;;;;;;;;;21.14;50.39;101704.59;7257968;19;153838;-58
2023/02/21 06:52:58;;;;;;;;;;;;;;;21.16;50.50;101708.81;7256766;19;153663;-58
2023/02/21 06:55:25;;;;;;;;;;;;;;;21.21;49.89;101708.72;7258730;19;152891;-58
2023/02/21 06:57:52;;;;;;;;;;;;;;;21.24;50.28;101687.66;7256833;19;153144;-58
2023/02/21 07:00:19;;;;;;;;;;;;;;;21.28;49.86;101697.16;7256023;19;154151;-58
2023/02/21 07:02:46;;;;;;;;;;;;;;;21.32;49.17;101700.22;7257875;19;154252;-58
2023/02/21 07:05:14;;;;;;;;;;;;;;;21.33;49.00;101699.09;7265592;19;154273;-58
2023/02/21 07:07:42;;;;;;;;;;;;;;;21.36;48.62;101699.31;7255731;19;153203;-58
2023/02/21 07:10:09;;;;;;;;;;;;;;;21.38;48.43;101697.06;7256931;19;153794;-58
2023/02/21 07:12:36;;;;;;;;;;;;;;;21.39;48.36;101704.38;7256596;19;154219;-58
2023/02/21 07:15:04;;;;;;;;;;;;;;;21.40;48.42;101694.78;7255615;19;153074;-58
2023/02/21 07:17:31;;;;;;;;;;;;;;;21.40;48.26;101697.59;7257136;19;154683;-58
2023/02/21 07:19:58;;;;;;;;;;;;;;;21.42;47.65;101691.69;7256754;19;153756;-58
2023/02/21 07:22:25;;;;;;;;;;;;;;;21.43;47.45;101697.03;7257148;19;152877;-58
2023/02/21 07:24:55;;;;;;;;;;;;;;;21.43;47.73;101702.66;7255155;19;155962;-58
2023/02/21 07:27:23;;;;;;;;;;;;;;;21.41;47.57;101706.88;7261552;19;154446;-58
2023/02/21 07:29:50;;;;;;;;;;;;;;;21.39;47.35;101706.34;7251902;19;152544;-58
2023/02/21 07:32:17;;;;;;;;;;;;;;;21.41;47.56;101706.88;7253725;19;153837;-58
2023/02/21 07:34:51;;;;;;;;;;;;;;;21.39;46.47;101700.72;7256811;19;153595;-57
2023/02/21 07:37:48;;;;;;;;;;;;;;;20.95;43.12;101706.41;7250529;19;153789;-59
2023/02/21 07:40:15;;;;;;;;;;;;;;;20.83;41.25;101703.97;7254307;19;153994;-58
2023/02/21 07:42:46;;;;;;;;;;;;;;;20.66;41.18;101704.38;7257386;19;154217;-58
2023/02/21 07:45:15;;;;;;;;;;;;;;;20.48;41.05;101710.66;7259838;19;153750;-58
2023/02/21 07:47:44;;;;;;;;;;;;;;;20.24;41.01;101712.44;7255323;19;153705;-58
2023/02/21 07:50:15;;;;;;;;;;;;;;;20.15;40.92;101714.16;7262777;19;153408;-58
2023/02/21 07:52:42;;;;;;;;;;;;;;;20.06;41.42;101721.50;7250163;19;154657;-58
2023/02/21 07:55:11;;;;;;;;;;;;;;;19.89;41.69;101713.44;7254599;19;154522;-58
2023/02/21 07:57:38;;;;;;;;;;;;;;;19.74;41.55;101714.31;7253029;19;155247;-58
2023/02/21 08:00:05;;;;;;;;;;;;;;;19.80;41.49;101715.97;7253196;19;155208;-58
2023/02/21 08:02:33;;;;;;;;;;;;;;;19.64;41.54;101719.09;7254261;19;153477;-59
2023/02/21 08:05:00;;;;;;;;;;;;;;;19.66;41.60;101714.91;7257739;19;153206;-58
2023/02/21 08:07:28;;;;;;;;;;;;;;;19.65;41.33;101713.22;7248466;19;153983;-58
2023/02/21 08:09:55;;;;;;;;;;;;;;;19.54;41.36;101715.19;7266737;19;153097;-58
2023/02/21 08:12:22;;;;;;;;;;;;;;;19.48;41.45;101715.50;7254932;19;153949;-58
2023/02/21 08:14:49;;;;;;;;;;;;;;;19.36;42.06;101712.09;7254275;19;153530;-58
2023/02/21 08:17:16;;;;;;;;;;;;;;;19.22;42.20;101710.97;7252049;19;154353;-58
2023/02/21 08:19:43;;;;;;;;;;;;;;;19.07;42.66;101717.44;7256526;19;155806;-58
2023/02/21 08:22:10;;;;;;;;;;;;;;;19.26;42.56;101710.13;7255334;19;152867;-59
2023/02/21 08:24:38;;;;;;;;;;;;;;;19.46;43.06;101706.50;7255098;19;153759;-58
2023/02/21 08:27:05;;;;;;;;;;;;;;;19.61;43.29;101716.88;7254454;19;156264;-61
2023/02/21 08:29:32;;;;;;;;;;;;;;;19.70;43.63;101718.81;7253535;19;153721;-58
2023/02/21 08:31:59;;;;;;;;;;;;;;;19.75;43.65;101715.16;7261336;19;153929;-58
2023/02/21 08:34:28;;;;;;;;;;;;;;;19.81;43.82;101706.41;7255634;19;151884;-58
2023/02/21 08:36:55;;;;;;;;;;;;;;;19.85;43.64;101707.53;7257710;19;153794;-58
2023/02/21 08:39:22;;;;;;;;;;;;;;;19.90;44.24;101710.31;7251857;19;153922;-58
2023/02/21 08:41:51;;;;;;;;;;;;;;;19.94;44.30;101708.63;7257430;19;154245;-58
2023/02/21 08:44:20;;;;;;;;;;;;;;;19.98;44.66;101714.53;7256064;19;153177;-58
2023/02/21 08:46:47;;;;;;;;;;;;;;;20.04;44.73;101715.31;7250937;19;155184;-58
2023/02/21 08:49:15;;;;;;;;;;;;;;;20.04;44.71;101718.13;7256842;19;153858;-58
2023/02/21 08:51:43;;;;;;;;;;;;;;;20.06;44.68;101711.13;7255948;19;152844;-58
2023/02/21 08:54:12;;;;;;;;;;;;;;;20.10;44.95;101722.59;7257416;19;153113;-58
2023/02/21 08:56:40;;;;;;;;;;;;;;;20.11;44.94;101713.91;7255243;19;153353;-58
2023/02/21 08:59:08;;;;;;;;;;;;;;;20.14;44.64;101718.09;7253615;19;153857;-58
2023/02/21 09:01:38;;;;;;;;;;;;;;;20.14;45.01;101718.09;7254877;19;153223;-58
2023/02/21 09:04:07;;;;;;;;;;;;;;;20.14;45.01;101718.94;7255703;19;154035;-58
2023/02/21 09:06:35;;;;;;;;;;;;;;;20.14;45.13;101713.31;7253889;19;154562;-58
2023/02/21 09:09:03;;;;;;;;;;;;;;;20.16;44.98;101722.31;7252387;19;152221;-58
2023/02/21 09:11:30;;;;;;;;;;;;;;;20.18;45.18;101722.00;7253844;19;155587;-58
2023/02/21 09:13:57;;;;;;;;;;;;;;;20.22;44.84;101714.69;7251017;19;153965;-58
2023/02/21 09:16:24;;;;;;;;;;;;;;;20.27;44.83;101714.66;7260286;19;154095;-58
2023/02/21 09:18:53;;;;;;;;;;;;;;;20.30;44.96;101720.59;7252166;19;153837;-58
2023/02/21 09:21:20;;;;;;;;;;;;;;;20.35;44.60;101702.88;7255288;19;154319;-58
2023/02/21 09:23:47;;;;;;;;;;;;;;;20.40;44.88;101708.44;7250680;19;154554;-58
2023/02/21 09:26:14;;;;;;;;;;;;;;;20.45;44.99;101710.38;7252641;19;153996;-58
2023/02/21 09:28:42;;;;;;;;;;;;;;;20.49;44.89;101711.50;7253522;19;152040;-58
2023/02/21 09:31:09;;;;;;;;;;;;;;;20.52;44.36;101706.16;7252251;19;154237;-58
2023/02/21 09:33:39;;;;;;;;;;;;;;;20.54;44.28;101703.88;7254384;19;155169;-58
2023/02/21 09:36:07;;;;;;;;;;;;;;;20.56;44.44;101692.38;7255008;19;153632;-58
2023/02/21 09:38:34;;;;;;;;;;;;;;;20.60;44.41;101693.47;7256708;19;153932;-58
2023/02/21 09:41:04;;;;;;;;;;;;;;;20.64;44.10;101688.94;7254054;19;152907;-58
2023/02/21 09:43:35;;;;;;;;;;;;;;;20.66;44.02;101695.13;7252964;19;154970;-58
2023/02/21 09:46:20;;;;;;;;;;;;;;;20.69;44.25;101691.72;7250062;19;155620;-58
2023/02/21 09:48:48;;;;;;;;;;;;;;;20.72;44.35;101688.31;7250352;19;152680;-58
2023/02/21 09:51:15;;;;;;;;;;;;;;;20.73;44.12;101679.59;7252039;19;152805;-58
2023/02/21 09:53:45;;;;;;;;;;;;;;;20.75;44.30;101682.13;7248166;19;154081;-58
2023/02/21 09:56:13;;;;;;;;;;;;;;;20.77;44.15;101680.69;7252136;19;153098;-58
2023/02/21 09:58:42;;;;;;;;;;;;;;;20.79;43.94;101675.63;7252277;19;154903;-58
2023/02/21 10:01:19;;;;;;;;;;;;;;;20.79;43.94;101672.81;7258148;19;153867;-58
2023/02/21 10:03:53;;;;;;;;;;;;;;;20.79;43.85;101670.03;7252256;19;153531;-58
2023/02/21 10:06:24;;;;;;;;;;;;;;;20.81;43.96;101675.31;7250599;19;154618;-58
2023/02/21 10:08:51;;;;;;;;;;;;;;;20.81;43.97;101673.34;7248771;19;153026;-58
2023/02/21 10:11:21;;;;;;;;;;;;;;;20.82;44.03;101672.22;7259928;19;154864;-58
2023/02/21 10:13:49;;;;;;;;;;;;;;;20.82;43.62;101677.00;7256736;19;155335;-58
2023/02/21 10:16:20;;;;;;;;;;;;;;;20.81;44.04;101678.97;7260703;19;152685;-58
2023/02/21 10:18:50;;;;;;;;;;;;;;;20.80;43.81;101676.47;7256071;19;154100;-58
2023/02/21 10:21:23;;;;;;;;;;;;;;;20.80;43.67;101673.66;7266294;19;153713;-58
2023/02/21 10:23:54;;;;;;;;;;;;;;;20.78;43.84;101671.16;7255271;19;153241;-58
2023/02/21 10:26:39;;;;;;;;;;;;;;;20.76;43.63;101680.97;7259164;19;153878;-58
2023/02/21 10:29:16;;;;;;;;;;;;;;;20.73;44.17;101671.19;7257607;19;152294;-58
2023/02/21 10:31:45;;;;;;;;;;;;;;;20.72;43.98;101666.69;7257331;19;153180;-58
2023/02/21 10:34:21;;;;;;;;;;;;;;;20.71;43.85;101664.19;7259047;19;154345;-58
2023/02/21 10:36:57;;;;;;;;;;;;;;;20.68;44.25;101661.94;7255965;19;153722;-58
2023/02/21 10:39:33;;;;;;;;;;;;;;;20.68;44.10;101659.97;7257332;19;153292;-58
2023/02/21 10:42:01;;;;;;;;;;;;;;;20.67;43.93;101660.28;7258126;19;153908;-58
2023/02/21 10:44:30;;;;;;;;;;;;;;;20.63;44.30;101657.22;7264762;19;154267;-58
2023/02/21 10:47:01;;;;;;;;;;;;;;;20.65;44.11;101649.34;7258519;19;153438;-58
2023/02/21 10:49:32;;;;;;;;;;;;;;;20.62;43.82;101657.53;7259060;19;153691;-58
2023/02/21 10:52:03;;;;;;;;;;;;;;;20.61;43.90;101651.06;7258920;19;152531;-58
2023/02/21 10:54:30;;;;;;;;;;;;;;;20.60;44.32;101648.53;7254055;19;153542;-58
2023/02/21 10:57:01;;;;;;;;;;;;;;;20.58;44.21;101648.81;7256820;19;153146;-58
2023/02/21 10:59:31;;;;;;;;;;;;;;;20.57;44.27;101649.13;7253799;19;153453;-58
2023/02/21 11:01:58;;;;;;;;;;;;;;;20.55;44.05;101645.75;7256569;19;154754;-58
2023/02/21 11:04:33;;;;;;;;;;;;;;;20.53;44.49;101651.69;7256548;19;153011;-58
2023/02/21 11:07:04;;;;;;;;;;;;;;;20.52;44.29;101658.44;7259028;19;154209;-58
2023/02/21 11:09:33;;;;;;;;;;;;;;;20.49;44.53;101656.19;7256895;19;153522;-58
2023/02/21 11:12:17;;;;;;;;;;;;;;;20.45;44.56;101649.47;7252820;19;155777;-58
2023/02/21 11:15:02;;;;;;;;;;;;;;;20.48;44.49;101648.06;7254303;19;154299;-58
2023/02/21 11:17:31;;;;;;;;;;;;;;;20.46;44.12;101653.13;7253844;19;153978;-57
2023/02/21 11:22:36;;;;;;;;;;;;;;;20.40;44.27;101650.34;7256573;19;155831;-58
2023/02/21 11:25:05;;;;;;;;;;;;;;;20.41;44.42;101645.56;7257021;19;153483;-58
2023/02/21 11:27:34;;;;;;;;;;;;;;;20.41;44.46;101640.81;7255202;19;154314;-58
2023/02/21 11:30:03;;;;;;;;;;;;;;;20.40;44.36;101641.09;7261942;19;154117;-58
2023/02/21 11:32:35;;;;;;;;;;;;;;;20.40;44.36;101653.16;7257330;19;154598;-58
2023/02/21 11:35:05;;;;;;;;;;;;;;;20.36;44.62;101642.78;7256670;19;154528;-58
2023/02/21 11:37:32;;;;;;;;;;;;;;;20.35;44.35;101641.13;7256142;19;152664;-58
2023/02/21 11:39:59;;;;;;;;;;;;;;;20.31;44.51;101634.41;7252377;19;153287;-58
2023/02/21 11:42:30;;;;;;;;;;;;;;;20.29;44.57;101634.69;7257412;19;154099;-58
2023/02/21 11:45:00;;;;;;;;;;;;;;;20.27;44.97;101624.84;7254207;19;152595;-58
2023/02/21 11:47:33;;;;;;;;;;;;;;;20.24;44.77;101611.41;7253463;19;153623;-58
2023/02/21 11:50:04;;;;;;;;;;;;;;;20.24;44.63;101614.22;7256860;19;152909;-58
2023/02/21 11:52:34;;;;;;;;;;;;;;;20.19;45.03;101611.44;7262450;19;154581;-58
2023/02/21 11:55:02;;;;;;;;;;;;;;;20.19;45.11;101609.47;7255389;19;154396;-58
2023/02/21 11:57:32;;;;;;;;;;;;;;;20.16;45.13;101609.22;7254853;19;152977;-58
2023/02/21 12:00:06;;;;;;;;;;;;;;;20.13;44.97;101602.22;7255273;19;153821;-58
2023/02/21 12:02:41;;;;;;;;;;;;;;;20.09;44.94;101597.47;7255027;19;154512;-58
2023/02/21 12:05:11;;;;;;;;;;;;;;;20.06;45.50;101593.28;7253688;19;154458;-58
2023/02/21 12:07:42;;;;;;;;;;;;;;;20.02;45.51;101583.78;7252504;19;154183;-58
2023/02/21 12:10:12;;;;;;;;;;;;;;;20.00;45.55;101577.63;7255193;19;154110;-58
2023/02/21 12:12:45;;;;;;;;;;;;;;;19.99;45.32;101568.34;7263632;19;153358;-58
2023/02/21 12:15:15;;;;;;;;;;;;;;;19.97;45.18;101567.81;7257122;19;154027;-58
2023/02/21 12:17:44;;;;;;;;;;;;;;;19.94;45.43;101562.78;7256096;19;152868;-58
2023/02/21 12:20:14;;;;;;;;;;;;;;;19.96;45.44;101560.53;7251890;19;154472;-57
2023/02/21 12:22:43;;;;;;;;;;;;;;;19.95;45.26;101553.25;7252654;19;152539;-58
2023/02/21 12:25:10;;;;;;;;;;;;;;;19.97;45.54;101551.00;7253660;19;153235;-58
2023/02/21 12:27:42;;;;;;;;;;;;;;;19.92;45.60;101541.78;7255607;19;153321;-58
2023/02/21 12:30:14;;;;;;;;;;;;;;;19.91;45.61;101542.88;7251165;19;153307;-58
2023/02/21 12:32:45;;;;;;;;;;;;;;;19.90;45.37;101536.44;7253064;19;153527;-58
2023/02/21 12:35:15;;;;;;;;;;;;;;;19.89;45.55;101543.19;7262948;19;154296;-58
2023/02/21 12:37:43;;;;;;;;;;;;;;;19.87;45.36;101534.22;7258521;19;154381;-58
2023/02/21 12:40:13;;;;;;;;;;;;;;;19.87;45.64;101539.84;7254554;19;153263;-59
2023/02/21 12:42:43;;;;;;;;;;;;;;;19.86;45.83;101526.09;7253354;19;154050;-58
2023/02/21 12:45:13;;;;;;;;;;;;;;;19.85;45.83;101527.25;7253711;19;154130;-58
2023/02/21 12:47:49;;;;;;;;;;;;;;;19.83;45.81;101524.72;7252560;19;153826;-58
2023/02/21 12:50:22;;;;;;;;;;;;;;;19.82;45.56;101520.22;7255940;19;154016;-58
2023/02/21 12:53:01;;;;;;;;;;;;;;;19.79;45.90;101526.44;7253797;19;151972;-57
2023/02/21 12:55:33;;;;;;;;;;;;;;;19.78;45.43;101519.13;7252052;19;154837;-58
2023/02/21 12:58:05;;;;;;;;;;;;;;;19.78;45.64;101518.28;7259357;19;153205;-58
2023/02/21 13:00:40;;;;;;;;;;;;;;;19.75;45.08;101513.28;7250782;19;152399;-58
2023/02/21 13:03:16;;;;;;;;;;;;;;;19.71;45.30;101509.38;7250527;19;154089;-58
2023/02/21 13:05:46;;;;;;;;;;;;;;;19.71;45.51;101506.56;7255504;19;153056;-58
2023/02/21 13:08:31;;;;;;;;;;;;;;;19.72;45.93;101502.63;7253506;19;153818;-58
2023/02/21 13:11:05;;;;;;;;;;;;;;;19.72;45.75;101506.25;7254684;19;153434;-58
2023/02/21 13:13:34;;;;;;;;;;;;;;;19.77;45.89;101500.63;7251863;19;153802;-58
2023/02/21 13:16:11;;;;;;;;;;;;;;;19.78;45.73;101493.91;7254463;19;152293;-58
2023/02/21 13:18:44;;;;;;;;;;;;;;;19.85;44.71;101485.19;7252051;19;154116;-58
2023/02/21 13:21:14;;;;;;;;;;;;;;;19.85;44.83;101485.19;7257451;19;153464;-58
2023/02/21 13:23:48;;;;;;;;;;;;;;;19.94;44.71;101475.03;7250926;19;155549;-58
2023/02/21 13:26:20;;;;;;;;;;;;;;;20.02;45.16;101465.97;7254447;19;152122;-58
2023/02/21 13:28:52;;;;;;;;;;;;;;;20.10;44.96;101464.50;7253660;19;153645;-58
2023/02/21 13:31:41;;;;;;;;;;;;;;;20.15;45.05;101461.66;7224645;19;160372;-58
2023/02/21 13:34:33;;;;;;;;;;;;;;;20.22;45.30;101462.97;7242454;19;153863;-58
2023/02/21 13:37:06;;;;;;;;;;;;;;;20.27;45.17;101454.53;7251309;19;153198;-58
2023/02/21 13:39:36;;;;;;;;;;;;;;;20.33;45.03;101452.56;7251079;19;154811;-58
2023/02/21 13:42:07;;;;;;;;;;;;;;;20.36;45.13;101444.38;7252934;19;152819;-58
2023/02/21 13:44:37;;;;;;;;;;;;;;;20.38;45.15;101442.13;7256589;19;154336;-58
2023/02/21 13:47:04;;;;;;;;;;;;;;;20.43;45.19;101441.22;7250463;19;152694;-58
2023/02/21 13:49:35;;;;;;;;;;;;;;;20.46;45.12;101437.81;7254006;19;153608;-58
2023/02/21 13:52:05;;;;;;;;;;;;;;;20.50;45.08;101435.25;7251630;19;153290;-58
2023/02/21 13:54:32;;;;;;;;;;;;;;;20.53;44.75;101432.72;7251972;19;153313;-58
2023/02/21 13:57:02;;;;;;;;;;;;;;;20.54;44.89;101425.94;7249920;19;153239;-63
2023/02/21 13:59:32;;;;;;;;;;;;;;;20.56;44.71;101423.69;7249275;19;152516;-58
2023/02/21 14:02:02;;;;;;;;;;;;;;;20.57;44.86;101424.53;7251036;19;153811;-58
2023/02/21 14:04:32;;;;;;;;;;;;;;;20.59;44.34;101414.66;7252916;19;153898;-58
2023/02/21 14:07:00;;;;;;;;;;;;;;;20.59;44.40;101417.47;7245905;19;155328;-58
2023/02/21 14:09:27;;;;;;;;;;;;;;;20.58;44.42;101409.38;7250630;19;154207;-58
2023/02/21 14:11:54;;;;;;;;;;;;;;;20.59;44.70;101411.84;7250676;19;155849;-58
2023/02/21 14:14:23;;;;;;;;;;;;;;;20.58;44.77;101412.97;7249683;19;153864;-58
2023/02/21 14:16:53;;;;;;;;;;;;;;;20.58;44.49;101409.38;7250574;19;153385;-58
2023/02/21 14:19:24;;;;;;;;;;;;;;;20.57;44.56;101402.91;7251141;19;154131;-58
2023/02/21 14:21:54;;;;;;;;;;;;;;;20.55;44.85;101396.75;7247556;19;152587;-57
2023/02/21 14:24:27;;;;;;;;;;;;;;;20.56;44.89;101403.19;7250539;19;154987;-58
2023/02/21 14:26:56;;;;;;;;;;;;;;;20.55;44.51;101404.31;7256358;19;152719;-58
2023/02/21 14:29:26;;;;;;;;;;;;;;;20.54;44.57;101400.69;7250448;19;155620;-58
2023/02/21 14:31:57;;;;;;;;;;;;;;;20.54;44.85;101392.25;7252860;19;153955;-58
2023/02/21 14:34:29;;;;;;;;;;;;;;;20.56;44.92;101394.78;7246700;19;153304;-58
2023/02/21 14:36:59;;;;;;;;;;;;;;;20.54;44.56;101383.84;7248362;19;154582;-58
2023/02/21 14:39:29;;;;;;;;;;;;;;;20.52;44.64;101386.13;7247822;19;154135;-58
2023/02/21 14:41:59;;;;;;;;;;;;;;;20.51;44.49;101383.59;7248900;19;152824;-58
2023/02/21 14:44:34;;;;;;;;;;;;;;;20.50;44.76;101385.56;7247188;19;153962;-58
2023/02/21 14:47:05;;;;;;;;;;;;;;;20.52;44.76;101374.06;7249744;19;154523;-58
2023/02/21 14:49:33;;;;;;;;;;;;;;;20.51;45.02;101381.63;7254430;19;153586;-58
2023/02/21 14:52:09;;;;;;;;;;;;;;;20.50;44.89;101382.75;7248522;19;153798;-58
2023/02/21 14:54:39;;;;;;;;;;;;;;;20.49;44.96;101389.50;7251079;19;154778;-58